Historyczne dane pomiarowe

Dodano dane terminowe – wersja testowa.

Dane z okresu 1951-2019

Wersja bazy: 1.34 [2019-03-16, lista zmian], aktualizacja planowana na 2019-04-15

Dane meteo z obszaru Polski uzyskane na podstawie danych udostępnionych przez Instytut Meteorologii i Gospodarki Wodnej – Państwowy Instytut Badawczy.

 

Wybierz Datę:    

       

TemperaturaWilgotnośćWiatrCiśnienieOpadyŚniegCzas trwania zjawisk
 Stacja t tx tn tng RH VA  wxwx mslp ppp RRR   cm mm wxwxwxwxwxwxwx
2010-02-25 4.6 11.1 -2.9 -4.5-- 0.7----- 0.0-- 24---------
2010-02-26 4.7 8.3 2.4 -5.6-- 6.0----- 0.0-- 22---------
2010-02-27 4.8 9.8 1.9 -4.5-- 2.0----- 0.0-- 19---------
2010-02-28 5.7 11.0 -1.5 -3.5-- 4.7----- 0.0-- 15---------
2010-03-01 5.0 10.8 1.7 -1.5-- 8.0----- 8.1------------
2010-03-02 1.3 5.3 -2.4 -7.4-- 5.7----- 0.5------------
2010-03-03 1.3 4.3 -0.5 -4.5-- 7.7----- 0.0------------
2010-03-04 -1.9 2.4 -4.9 -8.5-- 4.3----- 1.0------------
2010-03-05 -5.9 -0.9-12.6-13.5-- 4.3----- 0.4-- 1---------
2010-03-06 -5.4 0.3-10.8-19.9-- 6.3----- 0.0-- 2---------
2010-03-07 -5.4 0.4-10.8-17.1-- 4.3----- 0.8------------
2010-03-08 -2.9 0.8 -5.5-11.8-- 4.3----- 0.6-- 1---------
2010-03-09 -3.8 2.0 -8.9-17.1-- 2.0----- 0.0------------
2010-03-10 -2.4 4.6 -8.3-16.0-- 1.3----- 0.0------------
2010-03-11 -0.9 5.3 -5.4-11.5-- 4.3----- 0.0------------
2010-03-12 -0.1 3.0 -3.4 -9.8-- 8.0----- 7.0------------
2010-03-13 1.7 3.0 0.5 -3.0-- 8.0----- 6.8------------
2010-03-14 3.4 5.4 1.5 -2.0-- 8.0----- 10.6------------
2010-03-15 0.4 4.4 -2.1 -4.0-- 6.3----- 2.6-- 8---------
2010-03-16 0.6 2.8 -1.0 -4.0-- 6.7----- 0.0-- 10---------
2010-03-17 3.5 7.0 0.5 -5.2-- 7.7----- 0.0-- 3---------
2010-03-18 8.0 15.6 1.9 -4.4-- 3.7----- 0.0------------
2010-03-19 11.2 17.7 5.6 -1.4-- 0.7----- 0.0------------
2010-03-20 11.9 15.0 8.6 2.9-- 4.7----- 1.0------------
2010-03-21 12.2 16.3 9.6 -2.9-- 5.7----- 4.8------------
2010-03-22 7.3 13.0 3.5 -1.7-- 3.7----- 0.0------------
2010-03-23 8.2 15.0 1.9 -3.5-- 3.7----- 0.0------------
2010-03-24 8.1 18.3 -1.0 -6.9-- 0.3----- 0.0------------
2010-03-25 11.6 21.3 3.8 -0.5-- 2.7----- 0.0------------
2010-03-26 16.0 24.8 8.2 2.9-- 2.0----- 3.7------------
227.9 ms

 

Źródłem pochodzenia danych jest Instytut Meteorologii i Gospodarki Wodnej – Państwowy Instytut Badawczy. Dane Instytutu Meteorologii i Gospodarki Wodnej – Państwowego Instytutu Badawczego zostały przetworzone.

Dane źródłowe można odnaleźć na stronie https://dane.imgw.pl